Time;durP1;ratioP1;P1;durP2;ratioP2;P2;SDS_P1;SDS_P2;PMS_P1;PMS_P2;Temp;Humidity;BMP_temperature;BMP_pressure;BME280_temperature;BME280_humidity;BME280_pressure;Samples;Min_cycle;Max_cycle;Signal;HPM_P1;HPM_P2
2023/05/19 00:01:23;;;;;;;;;;;;;;;-142.75;100.00;78413.22;5089718;28;19920;-64
2023/05/19 00:03:51;;;;;;;;;;;;;;;-142.75;100.00;78411.25;5089800;28;20376;-61
2023/05/19 00:06:19;;;;;;;;;;;;;;;-142.75;100.00;78417.16;5083458;28;19964;-62
2023/05/19 00:08:45;;;;;;;;;;;;;;;-142.75;100.00;78419.13;5088176;28;19943;-63
2023/05/19 00:11:10;;;;;;;;;;;;;;;-142.75;100.00;78409.28;5084665;28;19920;-64
2023/05/19 00:13:35;;;;;;;;;;;;;;;-142.75;100.00;78438.81;5091794;28;19969;-63
2023/05/19 00:16:01;;;;;;;;;;;;;;;-142.75;100.00;78442.75;5089096;28;19915;-59
2023/05/19 00:18:28;;;;;;;;;;;;;;;-142.75;100.00;78450.63;5087380;28;20326;-63
2023/05/19 00:20:53;;;;;;;;;;;;;;;-142.75;100.00;78446.69;5089183;28;19920;-63
2023/05/19 00:23:18;;;;;;;;;;;;;;;-142.75;100.00;78456.53;5089946;28;19916;-64
2023/05/19 00:25:44;;;;;;;;;;;;;;;-142.75;100.00;78444.72;5088237;28;19920;-63
2023/05/19 00:28:09;;;;;;;;;;;;;;;-142.75;100.00;78446.69;5086573;28;19924;-62
2023/05/19 00:30:34;;;;;;;;;;;;;;;-142.75;100.00;78432.91;5085953;28;19995;-64
2023/05/19 00:33:00;;;;;;;;;;;;;;;-142.75;100.00;78436.84;5086128;28;19916;-61
2023/05/19 00:35:25;;;;;;;;;;;;;;;-142.75;100.00;78440.78;5090776;28;19977;-62
2023/05/19 00:37:50;;;;;;;;;;;;;;;-142.75;100.00;78432.91;5093091;28;19916;-64
2023/05/19 00:40:15;;;;;;;;;;;;;;;-142.75;100.00;78444.72;5089609;28;19923;-63
2023/05/19 00:42:41;;;;;;;;;;;;;;;-142.75;100.00;78428.97;5086328;28;19916;-64
2023/05/19 00:45:06;;;;;;;;;;;;;;;-142.75;100.00;78456.53;5088154;28;19927;-63
2023/05/19 00:47:32;;;;;;;;;;;;;;;-142.75;100.00;78464.41;5085570;28;19927;-63
2023/05/19 00:49:57;;;;;;;;;;;;;;;-142.75;100.00;78460.47;5088773;28;19923;-65
2023/05/19 00:52:23;;;;;;;;;;;;;;;-142.75;100.00;78470.31;5092150;28;19924;-64
2023/05/19 00:54:50;;;;;;;;;;;;;;;-142.75;100.00;78452.59;5085101;28;19916;-63
2023/05/19 00:57:15;;;;;;;;;;;;;;;-142.75;100.00;78452.59;5092625;28;19923;-63
2023/05/19 00:59:40;;;;;;;;;;;;;;;-142.75;100.00;78460.47;5086037;28;19916;-63
2023/05/19 01:02:06;;;;;;;;;;;;;;;-142.75;100.00;78460.47;5084299;28;19916;-63
2023/05/19 01:04:33;;;;;;;;;;;;;;;-142.75;100.00;78460.47;5092777;28;19916;-63
2023/05/19 01:06:59;;;;;;;;;;;;;;;-142.75;100.00;78450.63;5085469;28;19920;-62
2023/05/19 01:09:24;;;;;;;;;;;;;;;-142.75;100.00;78462.44;5089652;28;20451;-63
2023/05/19 01:11:49;;;;;;;;;;;;;;;-142.75;100.00;78468.34;5094811;28;20391;-62
2023/05/19 01:14:15;;;;;;;;;;;;;;;-142.75;100.00;78452.59;5084013;28;20284;-61
2023/05/19 01:16:57;;;;;;;;;;;;;;;-142.75;100.00;78456.53;5083273;28;20371;-62
2023/05/19 01:19:25;;;;;;;;;;;;;;;-142.75;100.00;78472.28;5082916;28;19923;-62
2023/05/19 01:21:50;;;;;;;;;;;;;;;-142.75;100.00;78456.53;5087326;28;19916;-63
2023/05/19 01:24:29;;;;;;;;;;;;;;;-142.75;100.00;78464.41;5083769;28;20371;-62
2023/05/19 01:27:13;;;;;;;;;;;;;;;-142.75;100.00;78452.59;5083684;28;19920;-57
2023/05/19 01:29:44;;;;;;;;;;;;;;;-142.75;100.00;78448.66;5087781;28;19916;-62
2023/05/19 01:32:10;;;;;;;;;;;;;;;-142.75;100.00;78440.78;5085056;28;19916;-62
2023/05/19 01:34:38;;;;;;;;;;;;;;;-142.75;100.00;78442.75;5089320;28;19916;-63
2023/05/19 01:37:03;;;;;;;;;;;;;;;-142.75;100.00;78446.69;5082983;28;20044;-62
2023/05/19 01:39:29;;;;;;;;;;;;;;;-142.75;100.00;78446.69;5088348;28;19965;-61
2023/05/19 01:41:56;;;;;;;;;;;;;;;-142.75;100.00;78440.78;5085148;28;19920;-63
2023/05/19 01:44:22;;;;;;;;;;;;;;;-142.75;100.00;78440.78;5084273;28;19923;-63
2023/05/19 01:46:48;;;;;;;;;;;;;;;-142.75;100.00;78452.59;5098239;28;19920;-63
2023/05/19 01:49:13;;;;;;;;;;;;;;;-142.75;100.00;78460.47;5092086;28;20327;-63
2023/05/19 01:51:39;;;;;;;;;;;;;;;-142.75;100.00;78460.47;5086928;28;19962;-64
2023/05/19 01:54:04;;;;;;;;;;;;;;;-142.75;100.00;78448.66;5089728;28;19924;-62
2023/05/19 01:56:40;;;;;;;;;;;;;;;-142.75;100.00;78442.75;5092365;28;19920;-62
2023/05/19 01:59:14;;;;;;;;;;;;;;;-142.75;100.00;78456.53;5095085;28;19924;-63
2023/05/19 02:01:39;;;;;;;;;;;;;;;-142.75;100.00;78462.44;5087011;28;20010;-63
2023/05/19 02:04:04;;;;;;;;;;;;;;;-142.75;100.00;78464.41;5094068;28;20003;-64
2023/05/19 02:06:40;;;;;;;;;;;;;;;-142.75;100.00;78460.47;5090967;28;20314;-63
2023/05/19 02:09:09;;;;;;;;;;;;;;;-142.75;100.00;78456.53;5085836;28;19916;-64
2023/05/19 02:11:39;;;;;;;;;;;;;;;-142.75;100.00;78464.41;5089783;28;19916;-63
2023/05/19 02:14:13;;;;;;;;;;;;;;;-142.75;100.00;78462.44;5093728;28;19955;-61
2023/05/19 02:16:42;;;;;;;;;;;;;;;-142.75;100.00;78464.41;5088445;28;20015;-64
2023/05/19 02:19:18;;;;;;;;;;;;;;;-142.75;100.00;78460.47;5089963;28;19945;-60
2023/05/19 02:21:43;;;;;;;;;;;;;;;-142.75;100.00;78472.28;5098156;28;20014;-64
2023/05/19 02:24:08;;;;;;;;;;;;;;;-142.75;100.00;78460.47;5092815;28;20007;-65
2023/05/19 02:26:34;;;;;;;;;;;;;;;-142.75;100.00;78458.50;5088578;28;19970;-63
2023/05/19 02:28:59;;;;;;;;;;;;;;;-142.75;100.00;78450.63;5092327;28;20007;-63
2023/05/19 02:31:24;;;;;;;;;;;;;;;-142.75;100.00;78460.47;5087038;28;19938;-65
2023/05/19 02:33:49;;;;;;;;;;;;;;;-142.75;100.00;78460.47;5093585;28;19919;-64
2023/05/19 02:36:14;;;;;;;;;;;;;;;-142.75;100.00;78462.44;5086562;28;20017;-63
2023/05/19 02:38:40;;;;;;;;;;;;;;;-142.75;100.00;78466.38;5086058;28;19916;-63
2023/05/19 02:41:05;;;;;;;;;;;;;;;-142.75;100.00;78480.16;5098177;28;19915;-60
2023/05/19 02:43:30;;;;;;;;;;;;;;;-142.75;100.00;78480.16;5094345;28;19916;-63
2023/05/19 02:45:55;;;;;;;;;;;;;;;-142.75;100.00;78480.16;5087502;28;20383;-61
2023/05/19 02:48:20;;;;;;;;;;;;;;;-142.75;100.00;78466.38;5096621;28;19947;-65
2023/05/19 02:50:46;;;;;;;;;;;;;;;-142.75;100.00;78476.22;5093029;28;20018;-63
2023/05/19 02:53:11;;;;;;;;;;;;;;;-142.75;100.00;78472.28;5086088;28;19916;-63
2023/05/19 02:55:36;;;;;;;;;;;;;;;-142.75;100.00;78468.34;5085432;28;19938;-64
2023/05/19 02:58:01;;;;;;;;;;;;;;;-142.75;100.00;78472.28;5087672;28;20288;-62
2023/05/19 03:00:26;;;;;;;;;;;;;;;-142.75;100.00;78452.59;5087949;28;20327;-65
2023/05/19 03:02:52;;;;;;;;;;;;;;;-142.75;100.00;78448.66;5092061;28;19916;-63
2023/05/19 03:05:17;;;;;;;;;;;;;;;-142.75;100.00;78458.50;5087268;28;19923;-64
2023/05/19 03:07:42;;;;;;;;;;;;;;;-142.75;100.00;78450.63;5090745;28;19972;-61
2023/05/19 03:10:07;;;;;;;;;;;;;;;-142.75;100.00;78448.66;5091566;28;19924;-63
2023/05/19 03:12:33;;;;;;;;;;;;;;;-142.75;100.00;78450.63;5093737;28;19934;-62
2023/05/19 03:14:58;;;;;;;;;;;;;;;-142.75;100.00;78452.59;5091032;28;20341;-60
2023/05/19 03:17:23;;;;;;;;;;;;;;;-142.75;100.00;78456.53;5085490;28;19947;-64
2023/05/19 03:19:50;;;;;;;;;;;;;;;-142.75;100.00;78458.50;5087348;28;19985;-61
2023/05/19 03:22:15;;;;;;;;;;;;;;;-142.75;100.00;78464.41;5096825;28;19961;-62
2023/05/19 03:24:40;;;;;;;;;;;;;;;-142.75;100.00;78472.28;5088967;28;19916;-64
2023/05/19 03:27:06;;;;;;;;;;;;;;;-142.75;100.00;78491.97;5087177;28;19920;-62
2023/05/19 03:29:31;;;;;;;;;;;;;;;-142.75;100.00;78505.78;5084200;28;19923;-59
2023/05/19 03:31:56;;;;;;;;;;;;;;;-142.75;100.00;78503.81;5085574;28;19923;-62
2023/05/19 03:34:21;;;;;;;;;;;;;;;-142.75;100.00;78495.94;5085689;28;19955;-62
2023/05/19 03:36:49;;;;;;;;;;;;;;;-142.75;100.00;78491.97;5084722;28;20421;-64
2023/05/19 03:39:14;;;;;;;;;;;;;;;-142.75;100.00;78501.84;5086848;28;19969;-64
2023/05/19 03:41:39;;;;;;;;;;;;;;;-142.75;100.00;78507.75;5092168;28;19924;-63
2023/05/19 03:44:04;;;;;;;;;;;;;;;-142.75;100.00;78491.97;5091505;28;20391;-61
2023/05/19 03:46:29;;;;;;;;;;;;;;;-142.75;100.00;78493.97;5082951;28;19924;-62
2023/05/19 03:48:55;;;;;;;;;;;;;;;-142.75;100.00;78497.91;5093878;28;19920;-63
2023/05/19 03:51:20;;;;;;;;;;;;;;;-142.75;100.00;78507.75;5094573;28;20038;-62
2023/05/19 03:53:45;;;;;;;;;;;;;;;-142.75;100.00;78505.78;5091751;28;19923;-61
2023/05/19 03:56:12;;;;;;;;;;;;;;;-142.75;100.00;78495.94;5091492;28;19916;-63
2023/05/19 03:58:39;;;;;;;;;;;;;;;-142.75;100.00;78513.66;5087425;28;20419;-61
2023/05/19 04:01:04;;;;;;;;;;;;;;;-142.75;100.00;78517.59;5085201;28;19916;-63
2023/05/19 04:03:30;;;;;;;;;;;;;;;-142.75;100.00;78511.69;5089532;28;19931;-61
2023/05/19 04:05:55;;;;;;;;;;;;;;;-142.75;100.00;78523.50;5083685;28;19920;-63
2023/05/19 04:08:20;;;;;;;;;;;;;;;-142.75;100.00;78507.75;5090191;28;20379;-62
2023/05/19 04:10:45;;;;;;;;;;;;;;;-142.75;100.00;78491.97;5089330;28;19916;-62
2023/05/19 04:13:10;;;;;;;;;;;;;;;-142.75;100.00;78480.16;5088975;28;20334;-63
2023/05/19 04:15:36;;;;;;;;;;;;;;;-142.75;100.00;78470.31;5087579;28;20003;-64
2023/05/19 04:18:01;;;;;;;;;;;;;;;-142.75;100.00;78464.41;5093720;28;20282;-63
2023/05/19 04:20:26;;;;;;;;;;;;;;;-142.75;100.00;78462.44;5084661;28;19961;-64
2023/05/19 04:22:51;;;;;;;;;;;;;;;-142.75;100.00;78456.53;5084059;28;19923;-62
2023/05/19 04:25:18;;;;;;;;;;;;;;;-142.75;100.00;78452.59;5093126;28;19919;-64
2023/05/19 04:27:44;;;;;;;;;;;;;;;-142.75;100.00;78440.78;5097339;28;19980;-64
2023/05/19 04:30:09;;;;;;;;;;;;;;;-142.75;100.00;78456.53;5086944;28;20411;-64
2023/05/19 04:32:36;;;;;;;;;;;;;;;-142.75;100.00;78458.50;5090518;28;19920;-65
2023/05/19 04:35:03;;;;;;;;;;;;;;;-142.75;100.00;78448.66;5090026;28;20019;-63
2023/05/19 04:37:28;;;;;;;;;;;;;;;-142.75;100.00;78432.91;5095242;28;19924;-63
2023/05/19 04:39:54;;;;;;;;;;;;;;;-142.75;100.00;78425.03;5096024;28;19916;-62
2023/05/19 04:42:19;;;;;;;;;;;;;;;-142.75;100.00;78415.19;5085974;28;20323;-63
2023/05/19 04:44:45;;;;;;;;;;;;;;;-142.75;100.00;78395.47;5086106;28;19957;-62
2023/05/19 04:47:10;;;;;;;;;;;;;;;-142.75;100.00;78373.81;5093621;28;19920;-63
2023/05/19 04:49:38;;;;;;;;;;;;;;;-142.75;100.00;78352.16;5107056;28;19969;-62
2023/05/19 04:52:05;;;;;;;;;;;;;;;-142.75;100.00;78322.63;5093621;28;19938;-63
2023/05/19 04:54:30;;;;;;;;;;;;;;;-142.75;100.00;78314.75;5091039;28;19916;-61
2023/05/19 04:56:56;;;;;;;;;;;;;;;-142.75;100.00;78302.94;5092508;28;19922;-58
2023/05/19 04:59:21;;;;;;;;;;;;;;;-142.75;100.00;78291.09;5092130;28;19916;-64
2023/05/19 05:01:46;;;;;;;;;;;;;;;-142.75;100.00;78287.16;5094277;28;20189;-63
2023/05/19 05:04:11;;;;;;;;;;;;;;;-142.75;100.00;78267.47;5092259;28;20436;-64
2023/05/19 05:06:41;;;;;;;;;;;;;;;-142.75;100.00;78255.66;5093130;28;19946;-62
2023/05/19 05:09:06;;;;;;;;;;;;;;;-142.75;100.00;78224.16;5086155;28;20537;-62
2023/05/19 05:11:31;;;;;;;;;;;;;;;-142.75;100.00;78218.25;5087186;28;20295;-61
2023/05/19 05:13:57;;;;;;;;;;;;;;;-142.75;100.00;78212.34;5085546;28;19924;-63
2023/05/19 05:16:23;;;;;;;;;;;;;;;-142.75;100.00;78198.56;5080303;28;19924;-64
2023/05/19 05:18:48;;;;;;;;;;;;;;;-142.75;100.00;78180.81;5088855;28;19922;-65
2023/05/19 05:21:13;;;;;;;;;;;;;;;-142.75;100.00;78165.06;5089633;28;19930;-62
2023/05/19 05:23:39;;;;;;;;;;;;;;;-142.75;100.00;78172.94;5088610;28;19931;-60
2023/05/19 05:26:08;;;;;;;;;;;;;;;-142.75;100.00;78169.00;5093411;28;20019;-62
2023/05/19 05:28:33;;;;;;;;;;;;;;;-142.75;100.00;78149.31;5088801;28;20137;-60
2023/05/19 05:30:58;;;;;;;;;;;;;;;-142.75;100.00;78139.47;5089103;28;19920;-60
2023/05/19 05:33:24;;;;;;;;;;;;;;;-142.75;100.00;78121.75;5088502;28;19970;-63
2023/05/19 05:35:49;;;;;;;;;;;;;;;-142.75;100.00;78121.75;5094176;28;20498;-62
2023/05/19 05:38:15;;;;;;;;;;;;;;;-142.75;100.00;78119.78;5093169;28;19923;-65
2023/05/19 05:40:40;;;;;;;;;;;;;;;-142.75;100.00;78149.31;5092980;28;19916;-64
2023/05/19 05:43:05;;;;;;;;;;;;;;;-142.75;100.00;78115.84;5089850;28;20371;-64
2023/05/19 05:45:30;;;;;;;;;;;;;;;-142.75;100.00;78086.31;5083136;28;19920;-63
2023/05/19 05:47:56;;;;;;;;;;;;;;;-142.75;100.00;78058.72;5087404;28;19959;-66
2023/05/19 05:50:21;;;;;;;;;;;;;;;-142.75;100.00;78033.13;5088438;28;19916;-63
2023/05/19 05:52:47;;;;;;;;;;;;;;;-142.75;100.00;78031.16;5085250;28;20583;-62
2023/05/19 05:55:12;;;;;;;;;;;;;;;-142.75;100.00;78031.16;5084276;28;19916;-62
2023/05/19 05:57:40;;;;;;;;;;;;;;;-142.75;100.00;78029.19;5094145;28;19923;-64
2023/05/19 06:00:08;;;;;;;;;;;;;;;-142.75;100.00;78011.47;5088475;28;19916;-61
2023/05/19 06:02:35;;;;;;;;;;;;;;;-142.75;100.00;78005.56;5084850;28;19962;-64
2023/05/19 06:05:01;;;;;;;;;;;;;;;-142.75;100.00;78021.31;5086935;28;19924;-60
2023/05/19 06:07:26;;;;;;;;;;;;;;;-142.75;100.00;78039.03;5087363;28;20340;-62
2023/05/19 06:09:51;;;;;;;;;;;;;;;-142.75;100.00;77999.66;5087034;28;19970;-62
2023/05/19 06:12:16;;;;;;;;;;;;;;;-142.75;100.00;77978.00;5084834;28;19980;-63
2023/05/19 06:14:42;;;;;;;;;;;;;;;-142.75;100.00;77976.03;5088289;28;19916;-65
2023/05/19 06:17:07;;;;;;;;;;;;;;;-142.75;100.00;77956.34;5087584;28;19951;-64
2023/05/19 06:19:32;;;;;;;;;;;;;;;-142.75;100.00;77938.63;5086043;28;19926;-64
2023/05/19 06:21:57;;;;;;;;;;;;;;;-142.75;100.00;77936.66;5087261;28;20371;-63
2023/05/19 06:24:22;;;;;;;;;;;;;;;-142.75;100.00;77940.59;5087657;28;19920;-65
2023/05/19 06:26:48;;;;;;;;;;;;;;;-142.75;100.00;77916.97;5085343;28;19969;-64
2023/05/19 06:29:13;;;;;;;;;;;;;;;-142.75;100.00;77893.31;5089670;28;19920;-64
2023/05/19 06:31:38;;;;;;;;;;;;;;;-142.75;100.00;77942.56;5093456;28;20311;-63
2023/05/19 06:34:03;;;;;;;;;;;;;;;-142.75;100.00;77889.38;5092445;28;19919;-65
2023/05/19 06:36:28;;;;;;;;;;;;;;;-142.75;100.00;77869.69;5094319;28;20424;-61
2023/05/19 06:38:54;;;;;;;;;;;;;;;-142.75;100.00;77826.38;5086021;28;19916;-64
2023/05/19 06:41:20;;;;;;;;;;;;;;;-142.75;100.00;77820.47;5085081;28;19923;-64
2023/05/19 06:43:45;;;;;;;;;;;;;;;-142.75;100.00;77796.84;5084544;28;19916;-64
2023/05/19 06:46:11;;;;;;;;;;;;;;;-142.75;100.00;77794.88;5081533;28;19931;-63
2023/05/19 06:48:37;;;;;;;;;;;;;;;-142.75;100.00;77806.69;5085153;28;19923;-64
2023/05/19 06:51:02;;;;;;;;;;;;;;;-142.75;100.00;77790.94;5086119;28;20310;-64
2023/05/19 06:53:27;;;;;;;;;;;;;;;-142.75;100.00;77781.09;5086078;28;20049;-63
2023/05/19 06:55:53;;;;;;;;;;;;;;;-142.75;100.00;77790.94;5084523;28;19920;-64
2023/05/19 06:58:18;;;;;;;;;;;;;;;-142.75;100.00;77806.69;5083600;28;19920;-64
2023/05/19 07:00:43;;;;;;;;;;;;;;;-142.75;100.00;77822.44;5086732;28;19927;-66
2023/05/19 07:03:08;;;;;;;;;;;;;;;-142.75;100.00;77814.56;5083388;28;20982;-63
2023/05/19 07:05:34;;;;;;;;;;;;;;;-142.75;100.00;77822.44;5082522;28;20034;-64
2023/05/19 07:07:59;;;;;;;;;;;;;;;-142.75;100.00;77814.56;5084198;28;19916;-61
2023/05/19 07:10:24;;;;;;;;;;;;;;;-142.75;100.00;77824.41;5086615;28;19924;-64
2023/05/19 07:12:49;;;;;;;;;;;;;;;-142.75;100.00;77834.25;5084943;28;19916;-62
2023/05/19 07:15:15;;;;;;;;;;;;;;;-142.75;100.00;77867.72;5086333;28;19916;-63
2023/05/19 07:17:40;;;;;;;;;;;;;;;-142.75;100.00;77832.28;5083077;28;20379;-66
2023/05/19 07:20:06;;;;;;;;;;;;;;;-142.75;100.00;77792.91;5086248;28;19968;-62
2023/05/19 07:22:33;;;;;;;;;;;;;;;-142.75;100.00;77765.34;5082145;28;19949;-62
2023/05/19 07:24:59;;;;;;;;;;;;;;;-142.75;100.00;77747.63;5081764;28;20410;-63
2023/05/19 07:27:24;;;;;;;;;;;;;;;-142.75;100.00;77700.34;5083989;28;19927;-63
2023/05/19 07:29:49;;;;;;;;;;;;;;;-142.75;100.00;77680.66;5084136;28;19920;-62
2023/05/19 07:32:14;;;;;;;;;;;;;;;-142.75;100.00;77659.00;5084641;28;19916;-63
2023/05/19 07:34:40;;;;;;;;;;;;;;;-142.75;100.00;77651.13;5085387;28;19916;-62
2023/05/19 07:37:05;;;;;;;;;;;;;;;-142.75;100.00;77629.47;5082495;28;19924;-63
2023/05/19 07:39:31;;;;;;;;;;;;;;;-142.75;100.00;77619.63;5093082;28;20299;-63
2023/05/19 07:41:56;;;;;;;;;;;;;;;-142.75;100.00;77605.84;5086097;28;20002;-62
2023/05/19 07:44:21;;;;;;;;;;;;;;;-142.75;100.00;77552.69;5085661;28;19916;-64
2023/05/19 07:46:46;;;;;;;;;;;;;;;-142.75;100.00;77566.47;5082838;28;20030;-62
2023/05/19 07:49:12;;;;;;;;;;;;;;;-142.75;100.00;77546.78;5086360;28;19916;-65
2023/05/19 07:51:37;;;;;;;;;;;;;;;-142.75;100.00;77540.88;5086543;28;20394;-63
2023/05/19 07:54:02;;;;;;;;;;;;;;;-142.75;100.00;77540.88;5085312;28;20413;-64
2023/05/19 07:56:28;;;;;;;;;;;;;;;-142.75;100.00;77546.78;5085038;28;20323;-59
2023/05/19 07:58:53;;;;;;;;;;;;;;;-142.75;100.00;77495.59;5086542;28;19931;-63
2023/05/19 08:01:18;;;;;;;;;;;;;;;-142.75;100.00;77456.22;5086294;28;19916;-63
2023/05/19 08:03:44;;;;;;;;;;;;;;;-142.75;100.00;77491.66;5083663;28;19916;-64
2023/05/19 08:06:09;;;;;;;;;;;;;;;-142.75;100.00;77416.81;5080839;28;19978;-61
2023/05/19 08:08:34;;;;;;;;;;;;;;;-142.75;98.12;77418.78;5077265;28;20311;-63
2023/05/19 08:11:03;;;;;;;;;;;;;;;-142.75;99.12;77393.19;5083799;28;20046;-62
2023/05/19 08:13:28;;;;;;;;;;;;;;;-142.75;94.45;77355.78;5085692;28;20635;-61
2023/05/19 08:15:58;;;;;;;;;;;;;;;-142.75;95.64;77316.41;5086856;28;20457;-61
2023/05/19 08:18:23;;;;;;;;;;;;;;;-142.75;94.39;77267.19;5085038;28;20595;-64
2023/05/19 08:20:49;;;;;;;;;;;;;;;-142.75;97.04;77239.63;5081967;28;19991;-62
2023/05/19 08:23:14;;;;;;;;;;;;;;;-142.75;91.46;77221.91;5085726;28;19916;-63
2023/05/19 08:25:39;;;;;;;;;;;;;;;-142.75;86.80;77239.63;5083177;28;19955;-64
2023/05/19 08:28:04;;;;;;;;;;;;;;;-142.75;87.56;77243.56;5089200;28;20012;-64
2023/05/19 08:30:30;;;;;;;;;;;;;;;-142.75;88.17;77208.13;5085566;28;19948;-60
2023/05/19 08:32:55;;;;;;;;;;;;;;;-142.75;86.80;77206.16;5086017;28;19916;-66
2023/05/19 08:35:20;;;;;;;;;;;;;;;-142.75;89.68;77176.63;5090048;28;19978;-63
2023/05/19 08:37:46;;;;;;;;;;;;;;;-142.75;82.70;77176.63;5084177;28;19985;-62
2023/05/19 08:40:16;;;;;;;;;;;;;;;-142.75;81.93;77156.94;5085525;28;19916;-64
2023/05/19 08:42:41;;;;;;;;;;;;;;;-142.75;80.21;77105.75;5085476;28;20019;-64
2023/05/19 08:45:07;;;;;;;;;;;;;;;-142.75;82.16;77123.47;5083778;28;20018;-63
2023/05/19 08:47:32;;;;;;;;;;;;;;;-142.75;81.67;77082.13;5080606;28;19955;-60
2023/05/19 08:50:02;;;;;;;;;;;;;;;-142.75;77.26;77107.72;5084916;28;19916;-64
2023/05/19 08:52:41;;;;;;;;;;;;;;;-142.75;78.62;77088.03;5085040;28;19920;-64
2023/05/19 08:55:06;;;;;;;;;;;;;;;-142.75;79.28;77086.06;5085123;28;19994;-63
2023/05/19 08:57:32;;;;;;;;;;;;;;;-142.75;77.19;77101.81;5085552;28;20383;-61
2023/05/19 08:59:57;;;;;;;;;;;;;;;-142.75;77.35;77062.44;5082674;28;20394;-64
2023/05/19 09:02:23;;;;;;;;;;;;;;;-142.75;79.34;77034.88;5085132;28;20098;-62
2023/05/19 09:04:48;;;;;;;;;;;;;;;-142.75;78.30;77032.91;5085269;28;19923;-64
2023/05/19 09:07:14;;;;;;;;;;;;;;;-142.75;76.77;77062.44;5085423;28;19920;-63
2023/05/19 09:09:42;;;;;;;;;;;;;;;-142.75;80.54;77044.72;5085409;28;20566;-63
2023/05/19 09:12:07;;;;;;;;;;;;;;;-142.75;78.88;76995.50;5084095;28;19923;-65
2023/05/19 09:14:33;;;;;;;;;;;;;;;-142.75;78.72;76983.69;5085155;28;19920;-65
2023/05/19 09:16:58;;;;;;;;;;;;;;;-142.75;78.39;76932.50;5085977;28;19923;-63
2023/05/19 09:19:27;;;;;;;;;;;;;;;-142.75;75.81;76932.50;5085547;28;20465;-64
2023/05/19 09:22:05;;;;;;;;;;;;;;;-142.75;76.34;76934.47;5084728;28;20482;-64
2023/05/19 09:24:30;;;;;;;;;;;;;;;-142.75;68.48;77007.31;5091004;28;20029;-64
2023/05/19 09:26:56;;;;;;;;;;;;;;;-142.75;67.67;76999.44;5085263;28;19955;-64
2023/05/19 09:29:21;;;;;;;;;;;;;;;-142.75;69.80;77058.50;5085462;28;20335;-64
2023/05/19 09:31:50;;;;;;;;;;;;;;;-142.75;70.70;77034.88;5085278;28;20156;-65
2023/05/19 09:34:15;;;;;;;;;;;;;;;-142.75;71.78;77050.63;5092534;28;19956;-65
2023/05/19 09:36:41;;;;;;;;;;;;;;;-142.75;70.23;77027.00;5083484;28;20001;-64
2023/05/19 09:39:15;;;;;;;;;;;;;;;-142.75;68.49;77046.69;5085359;28;19916;-64
2023/05/19 09:41:41;;;;;;;;;;;;;;;-142.75;71.70;77027.00;5085078;28;19971;-62
2023/05/19 09:44:06;;;;;;;;;;;;;;;-142.75;74.23;77058.50;5085188;28;20032;-64
2023/05/19 09:46:34;;;;;;;;;;;;;;;-142.75;73.80;77005.34;5085774;28;19920;-64
2023/05/19 09:49:03;;;;;;;;;;;;;;;-142.75;72.56;76960.06;5085061;28;19916;-61
2023/05/19 09:51:28;;;;;;;;;;;;;;;-142.75;66.54;76987.63;5084960;28;19946;-60
2023/05/19 09:53:53;;;;;;;;;;;;;;;-142.75;65.00;76997.47;5086898;28;20383;-63
2023/05/19 09:56:22;;;;;;;;;;;;;;;-142.75;68.28;76956.13;5084899;28;20459;-62
2023/05/19 09:58:47;;;;;;;;;;;;;;;-142.75;68.75;76938.41;5084828;28;19916;-64
2023/05/19 10:01:13;;;;;;;;;;;;;;;-142.75;69.25;76908.88;5085309;28;19973;-63
2023/05/19 10:03:39;;;;;;;;;;;;;;;-142.75;64.59;76875.41;5083903;28;20406;-64
2023/05/19 10:06:06;;;;;;;;;;;;;;;-142.75;63.57;76916.75;5093065;28;19923;-64
2023/05/19 10:08:33;;;;;;;;;;;;;;;-142.75;60.43;76904.94;5091159;28;19970;-64
2023/05/19 10:10:58;;;;;;;;;;;;;;;-142.75;66.97;76865.56;5087756;28;19923;-62
2023/05/19 10:13:24;;;;;;;;;;;;;;;-142.75;61.18;76851.78;5089581;28;19920;-64
2023/05/19 10:15:51;;;;;;;;;;;;;;;-142.75;59.88;76869.50;5089213;28;19927;-65
2023/05/19 10:18:17;;;;;;;;;;;;;;;-142.75;60.43;76838.00;5088419;28;20008;-65
2023/05/19 10:20:42;;;;;;;;;;;;;;;-142.75;57.42;76875.41;5089872;28;20006;-65
2023/05/19 10:23:07;;;;;;;;;;;;;;;-142.75;58.57;76853.75;5088760;28;19931;-65
2023/05/19 10:25:34;;;;;;;;;;;;;;;-142.75;59.51;76838.00;5088569;28;20391;-64
2023/05/19 10:28:03;;;;;;;;;;;;;;;-142.75;61.42;76847.84;5089016;28;19916;-64
2023/05/19 10:30:32;;;;;;;;;;;;;;;-142.75;57.60;76838.00;5088960;28;19923;-66
2023/05/19 10:32:59;;;;;;;;;;;;;;;-142.75;56.26;76877.38;5088584;28;19969;-63
2023/05/19 10:35:47;;;;;;;;;;;;;;;-142.75;58.26;76889.19;5088973;28;19927;-65
2023/05/19 10:38:36;;;;;;;;;;;;;;;-142.75;64.52;76873.44;5086244;28;20034;-64
2023/05/19 10:41:20;;;;;;;;;;;;;;;-142.75;63.64;76839.97;5082947;28;20299;-63
2023/05/19 10:43:53;;;;;;;;;;;;;;;-142.75;61.78;76834.06;5088629;28;19924;-64
2023/05/19 10:46:22;;;;;;;;;;;;;;;-142.75;61.42;76881.31;5088820;28;19920;-64
2023/05/19 10:48:47;;;;;;;;;;;;;;;-142.75;63.88;76845.88;5088469;28;19916;-64
2023/05/19 10:51:13;;;;;;;;;;;;;;;-142.75;61.83;76853.75;5088681;28;19923;-64
2023/05/19 10:53:48;;;;;;;;;;;;;;;-142.75;61.28;76861.63;5088140;28;19920;-64
2023/05/19 10:56:28;;;;;;;;;;;;;;;-142.75;54.32;76830.13;5088492;28;20391;-64
2023/05/19 10:58:54;;;;;;;;;;;;;;;-142.75;55.26;76810.44;5087723;28;19920;-64
2023/05/19 11:01:23;;;;;;;;;;;;;;;-142.75;55.01;76790.78;5086862;28;20304;-62
2023/05/19 11:03:52;;;;;;;;;;;;;;;-142.75;51.96;76761.25;5088148;28;19923;-63
2023/05/19 11:06:17;;;;;;;;;;;;;;;-142.75;53.29;76751.41;5087653;28;19920;-65
2023/05/19 11:08:42;;;;;;;;;;;;;;;-142.75;51.62;76775.03;5088284;28;20053;-62
2023/05/19 11:11:15;;;;;;;;;;;;;;;-142.75;51.78;76786.84;5086833;28;20268;-64
2023/05/19 11:13:45;;;;;;;;;;;;;;;-142.75;50.61;76786.84;5087835;28;19932;-63
2023/05/19 11:16:10;;;;;;;;;;;;;;;-142.75;50.60;76743.53;5088447;28;19924;-65
2023/05/19 11:18:37;;;;;;;;;;;;;;;-142.75;50.35;76731.72;5088038;28;20391;-64
2023/05/19 11:21:02;;;;;;;;;;;;;;;-142.75;53.23;76743.53;5088086;28;19916;-65
2023/05/19 11:23:31;;;;;;;;;;;;;;;-142.75;50.87;76743.53;5086396;28;19920;-63
2023/05/19 11:26:00;;;;;;;;;;;;;;;-142.75;54.90;76743.53;5087874;28;19920;-65
2023/05/19 11:28:28;;;;;;;;;;;;;;;-142.75;53.56;76784.88;5088016;28;19923;-65
2023/05/19 11:30:54;;;;;;;;;;;;;;;-142.75;58.26;76822.25;5087591;28;20434;-64
2023/05/19 11:33:20;;;;;;;;;;;;;;;-142.75;66.32;76790.78;5087611;28;19923;-63
2023/05/19 11:35:46;;;;;;;;;;;;;;;-142.75;65.27;76735.66;5087838;28;19923;-64
2023/05/19 11:38:11;;;;;;;;;;;;;;;-142.75;58.94;76727.78;5087409;28;19916;-63
2023/05/19 11:40:37;;;;;;;;;;;;;;;-142.75;58.15;76778.97;5085702;28;19923;-65
2023/05/19 11:43:02;;;;;;;;;;;;;;;-142.75;57.18;76847.84;5088184;28;19924;-63
2023/05/19 11:45:30;;;;;;;;;;;;;;;-142.75;60.62;76763.22;5087325;28;19975;-66
2023/05/19 11:47:56;;;;;;;;;;;;;;;-142.75;63.24;76692.34;5084221;28;19916;-64
2023/05/19 11:50:22;;;;;;;;;;;;;;;-142.75;59.18;76678.56;5087432;28;19916;-63
2023/05/19 11:52:47;;;;;;;;;;;;;;;-142.75;52.88;76676.59;5090118;28;19960;-64
2023/05/19 11:55:16;;;;;;;;;;;;;;;-142.75;51.83;76609.66;5087551;28;20299;-64
2023/05/19 11:57:49;;;;;;;;;;;;;;;-142.75;53.22;76629.34;5087038;28;19916;-63
2023/05/19 12:00:14;;;;;;;;;;;;;;;-142.75;53.83;76593.91;5088915;28;19962;-65
2023/05/19 12:02:40;;;;;;;;;;;;;;;-142.75;49.86;76556.50;5086907;28;19943;-64
2023/05/19 12:05:05;;;;;;;;;;;;;;;-142.75;47.24;76621.47;5087198;28;19912;-64
2023/05/19 12:07:30;;;;;;;;;;;;;;;-142.75;49.68;76643.13;5086862;28;19916;-63
2023/05/19 12:09:58;;;;;;;;;;;;;;;-142.75;54.32;76637.22;5086936;28;19916;-63
2023/05/19 12:12:23;;;;;;;;;;;;;;;-142.75;59.33;76617.53;5086600;28;19927;-64
2023/05/19 12:14:49;;;;;;;;;;;;;;;-142.75;52.63;76613.59;5086056;28;20391;-62
2023/05/19 12:17:15;;;;;;;;;;;;;;;-142.75;49.38;76672.66;5086778;28;19927;-63